Time;durP1;ratioP1;P1;durP2;ratioP2;P2;SDS_P1;SDS_P2;PMS_P1;PMS_P2;Temp;Humidity;BMP_temperature;BMP_pressure;BME280_temperature;BME280_humidity;BME280_pressure;Samples;Min_cycle;Max_cycle;Signal;HPM_P1;HPM_P2
2022/11/06 00:06:47;;;;;;;18.5;25.8;;;;;;;9.3;89.1;99100;;;;
2022/11/06 00:15:43;;;;;;;18.5;25.8;;;;;;;9.3;89.1;99110;;;;
2022/11/06 00:26:43;;;;;;;19.1;22.7;;;;;;;9.3;89.1;99110;;;;
2022/11/06 00:36:43;;;;;;;19.1;22.7;;;;;;;9.3;89.1;99110;;;;
2022/11/06 00:46:43;;;;;;;19.1;22.7;;;;;;;9.2;89.1;99120;;;;
2022/11/06 00:56:43;;;;;;;17.5;23.9;;;;;;;9.2;89.3;99120;;;;
2022/11/06 01:06:43;;;;;;;17.5;23.9;;;;;;;9.1;89.4;99120;;;;
2022/11/06 01:16:43;;;;;;;17.5;23.9;;;;;;;9.1;89.4;99130;;;;
2022/11/06 01:27:43;;;;;;;20.4;28.6;;;;;;;9;89.4;99120;;;;
2022/11/06 01:38:43;;;;;;;20.4;28.6;;;;;;;9;89.5;99120;;;;
2022/11/06 01:48:43;;;;;;;20.4;28.6;;;;;;;9.1;89.3;99120;;;;
2022/11/06 01:59:43;;;;;;;16.2;20.9;;;;;;;9;89.3;99130;;;;
2022/11/06 02:09:43;;;;;;;16.2;20.9;;;;;;;8.9;89.5;99130;;;;
2022/11/06 02:20:43;;;;;;;16.2;20.9;;;;;;;8.9;89.3;99130;;;;
2022/11/06 02:30:43;;;;;;;16.6;25.6;;;;;;;8.9;89.2;99140;;;;
2022/11/06 02:40:43;;;;;;;16.6;25.6;;;;;;;8.9;89.1;99150;;;;
2022/11/06 02:51:43;;;;;;;16.6;25.6;;;;;;;8.8;89.2;99150;;;;
2022/11/06 03:02:43;;;;;;;16.4;23;;;;;;;8.8;89.1;99150;;;;
2022/11/06 03:13:43;;;;;;;16.4;23;;;;;;;8.8;89.2;99140;;;;
2022/11/06 03:23:44;;;;;;;16.4;23;;;;;;;8.9;89.3;99130;;;;
2022/11/06 03:34:43;;;;;;;15.9;24.2;;;;;;;8.9;88.9;99140;;;;
2022/11/06 03:44:43;;;;;;;15.9;24.2;;;;;;;9;88.8;99150;;;;
2022/11/06 03:55:43;;;;;;;15.6;20.1;;;;;;;8.8;88.3;99170;;;;
2022/11/06 04:05:43;;;;;;;15.6;20.1;;;;;;;8.7;88.2;99180;;;;
2022/11/06 04:15:43;;;;;;;15.6;20.1;;;;;;;8.6;88.5;99180;;;;
2022/11/06 04:26:47;;;;;;;17.1;21.3;;;;;;;8.4;89.1;99190;;;;
2022/11/06 04:36:43;;;;;;;17.1;21.3;;;;;;;8.4;89.8;99190;;;;
2022/11/06 04:46:43;;;;;;;17.1;21.3;;;;;;;8.4;89.8;99190;;;;
2022/11/06 04:57:43;;;;;;;17.1;24.1;;;;;;;8.5;89.8;99190;;;;
2022/11/06 05:07:43;;;;;;;17.1;24.1;;;;;;;8.4;89.7;99210;;;;
2022/11/06 05:18:43;;;;;;;17.1;24.1;;;;;;;8.4;89.6;99200;;;;
2022/11/06 05:29:43;;;;;;;15.8;24.8;;;;;;;8.4;89.5;99200;;;;
2022/11/06 05:39:43;;;;;;;15.8;24.8;;;;;;;8.5;89.2;99210;;;;
2022/11/06 05:50:43;;;;;;;15.8;24.8;;;;;;;8.4;89;99230;;;;
2022/11/06 06:01:43;;;;;;;15.5;20.1;;;;;;;8.5;89.1;99230;;;;
2022/11/06 06:12:43;;;;;;;15.5;20.1;;;;;;;8.4;88.7;99240;;;;
2022/11/06 06:23:43;;;;;;;18.4;26.6;;;;;;;8.4;89;99250;;;;
2022/11/06 06:34:43;;;;;;;18.4;26.6;;;;;;;8.6;88.9;99260;;;;
2022/11/06 06:45:43;;;;;;;18.4;26.6;;;;;;;8.6;88.6;99270;;;;
2022/11/06 06:55:43;;;;;;;18.8;24.4;;;;;;;8.6;88.3;99280;;;;
2022/11/06 07:06:43;;;;;;;18.8;24.4;;;;;;;8.8;88.7;99270;;;;
2022/11/06 07:16:43;;;;;;;18.8;24.4;;;;;;;8.9;88.4;99260;;;;
2022/11/06 07:27:43;;;;;;;20.2;28.1;;;;;;;9.1;87.8;99260;;;;
2022/11/06 07:38:43;;;;;;;20.2;28.1;;;;;;;9.2;87.1;99260;;;;
2022/11/06 07:49:43;;;;;;;20.2;28.1;;;;;;;9.4;86.2;99260;;;;
2022/11/06 07:59:43;;;;;;;17.9;24.7;;;;;;;9.5;86;99240;;;;
2022/11/06 08:09:43;;;;;;;17.9;24.7;;;;;;;9.8;84.7;99250;;;;
2022/11/06 08:20:43;;;;;;;17.9;24.7;;;;;;;10.1;84.3;99250;;;;
2022/11/06 08:30:43;;;;;;;16.4;22.3;;;;;;;10.2;84.2;99250;;;;
2022/11/06 08:41:43;;;;;;;16.4;22.3;;;;;;;10.4;83.3;99240;;;;
2022/11/06 08:51:43;;;;;;;16.4;22.3;;;;;;;10.9;82.3;99250;;;;
2022/11/06 09:02:43;;;;;;;15;22.6;;;;;;;11.1;80.4;99240;;;;
2022/11/06 09:13:43;;;;;;;15;22.6;;;;;;;11.4;80.3;99240;;;;
2022/11/06 09:24:43;;;;;;;14.1;23;;;;;;;11.4;78.9;99240;;;;
2022/11/06 09:34:43;;;;;;;14.1;23;;;;;;;11.6;80;99240;;;;
2022/11/06 09:45:43;;;;;;;14.1;23;;;;;;;11.7;79.8;99240;;;;
2022/11/06 09:56:43;;;;;;;14.6;21.9;;;;;;;11.7;78.3;99240;;;;
2022/11/06 10:06:43;;;;;;;14.6;21.9;;;;;;;11.6;77.8;99230;;;;
2022/11/06 10:17:43;;;;;;;14.6;21.9;;;;;;;11.6;77.9;99230;;;;
2022/11/06 10:27:43;;;;;;;14.5;26.7;;;;;;;11.4;78.4;99210;;;;
2022/11/06 10:38:43;;;;;;;14.5;26.7;;;;;;;11.5;78;99190;;;;
2022/11/06 10:48:43;;;;;;;14.5;26.7;;;;;;;11.2;78.5;99180;;;;
2022/11/06 10:59:43;;;;;;;15;20.5;;;;;;;11.2;78.9;99170;;;;
2022/11/06 11:09:44;;;;;;;15;20.5;;;;;;;11.3;78.5;99170;;;;
2022/11/06 11:19:43;;;;;;;15;20.5;;;;;;;11.3;79.2;99160;;;;
2022/11/06 11:29:44;;;;;;;10.9;13.4;;;;;;;11.4;78.7;99150;;;;
2022/11/06 11:39:43;;;;;;;10.9;13.4;;;;;;;11.6;78.5;99140;;;;
2022/11/06 11:49:43;;;;;;;10.9;13.4;;;;;;;11.7;78;99130;;;;
2022/11/06 12:00:43;;;;;;;10.7;17;;;;;;;12;78.2;99120;;;;
2022/11/06 12:10:43;;;;;;;10.7;17;;;;;;;12.1;76.9;99110;;;;
2022/11/06 12:21:43;;;;;;;10.7;17;;;;;;;12;76.2;99110;;;;
2022/11/06 12:32:43;;;;;;;13;16.6;;;;;;;11.7;77.5;99110;;;;
2022/11/06 12:43:43;;;;;;;13;16.6;;;;;;;11.6;78;99110;;;;
2022/11/06 12:53:43;;;;;;;17.7;20.7;;;;;;;11.5;78.7;99110;;;;
2022/11/06 13:03:43;;;;;;;17.7;20.7;;;;;;;11.4;78.5;99110;;;;
2022/11/06 13:13:43;;;;;;;17.7;20.7;;;;;;;11.3;78.8;99110;;;;
2022/11/06 13:24:43;;;;;;;15.9;22.5;;;;;;;11.1;78.7;99110;;;;
2022/11/06 13:34:43;;;;;;;15.9;22.5;;;;;;;11.2;78.6;99100;;;;
2022/11/06 13:45:43;;;;;;;15.9;22.5;;;;;;;11.1;77.1;99120;;;;
2022/11/06 13:55:43;;;;;;;12.9;16.6;;;;;;;10.5;77.4;99120;;;;
2022/11/06 14:05:43;;;;;;;12.9;16.6;;;;;;;10.4;77.8;99110;;;;
2022/11/06 14:16:43;;;;;;;12.9;16.6;;;;;;;10.1;78.2;99100;;;;
2022/11/06 14:27:44;;;;;;;11.4;20.1;;;;;;;9.7;79.6;99090;;;;
2022/11/06 14:38:44;;;;;;;11.4;20.1;;;;;;;9.4;80.4;99090;;;;
2022/11/06 14:49:45;;;;;;;11.4;20.1;;;;;;;9.1;80.6;99080;;;;
2022/11/06 14:59:43;;;;;;;11.9;17.7;;;;;;;8.9;81;99080;;;;
2022/11/06 15:09:43;;;;;;;11.9;17.7;;;;;;;8.6;82.2;99060;;;;
2022/11/06 15:19:43;;;;;;;11.9;17.7;;;;;;;8.5;83.1;99060;;;;
2022/11/06 15:30:43;;;;;;;15.9;23.1;;;;;;;8.6;83.6;99050;;;;
2022/11/06 15:40:43;;;;;;;15.9;23.1;;;;;;;8.8;83.5;99060;;;;
2022/11/06 15:51:43;;;;;;;15.9;23.1;;;;;;;9;83.5;99060;;;;
2022/11/06 16:02:43;;;;;;;8.5;13;;;;;;;9.1;83.4;99050;;;;
2022/11/06 16:13:43;;;;;;;8.5;13;;;;;;;9.1;83.4;99050;;;;
2022/11/06 16:23:43;;;;;;;19.3;28;;;;;;;9.2;83.2;99040;;;;
2022/11/06 16:34:44;;;;;;;19.3;28;;;;;;;9;83.7;99020;;;;
2022/11/06 16:44:43;;;;;;;19.3;28;;;;;;;9;83.7;99030;;;;
2022/11/06 16:54:43;;;;;;;16;21.6;;;;;;;9;84.3;99020;;;;
2022/11/06 17:04:43;;;;;;;16;21.6;;;;;;;9;84.2;99020;;;;
2022/11/06 17:15:43;;;;;;;16;21.6;;;;;;;9;84.5;99020;;;;
2022/11/06 17:25:43;;;;;;;17.1;23.6;;;;;;;9.1;84.4;99020;;;;
2022/11/06 17:36:43;;;;;;;17.1;23.6;;;;;;;9.1;84.5;99020;;;;
2022/11/06 17:46:43;;;;;;;17.1;23.6;;;;;;;9.1;85;99020;;;;
2022/11/06 17:56:43;;;;;;;17.8;23.5;;;;;;;9.1;85.3;99010;;;;
2022/11/06 18:06:43;;;;;;;17.8;23.5;;;;;;;9.2;85.5;99010;;;;
2022/11/06 18:17:43;;;;;;;17.8;23.5;;;;;;;9.2;85.6;99000;;;;
2022/11/06 18:28:43;;;;;;;15.6;21.4;;;;;;;9.2;85.9;99000;;;;
2022/11/06 18:39:43;;;;;;;15.6;21.4;;;;;;;9.2;86.1;98990;;;;
2022/11/06 18:49:43;;;;;;;15.6;21.4;;;;;;;9.1;86.7;98990;;;;
2022/11/06 18:59:43;;;;;;;15.9;20.6;;;;;;;9.1;87;98980;;;;
2022/11/06 19:09:43;;;;;;;15.9;20.6;;;;;;;9.1;87;98980;;;;
2022/11/06 19:20:43;;;;;;;15.9;20.6;;;;;;;9.1;87.2;98960;;;;
2022/11/06 19:30:43;;;;;;;18.2;23.2;;;;;;;9.1;86.9;98960;;;;
2022/11/06 19:40:43;;;;;;;18.2;23.2;;;;;;;8.9;86.7;98960;;;;
2022/11/06 19:50:43;;;;;;;18.2;23.2;;;;;;;8.8;87.1;98960;;;;
2022/11/06 20:01:43;;;;;;;19.9;25.4;;;;;;;8.8;87.7;98950;;;;
2022/11/06 20:11:44;;;;;;;19.9;25.4;;;;;;;8.8;87.9;98950;;;;
2022/11/06 20:22:43;;;;;;;18.1;23.8;;;;;;;8.6;88;98950;;;;
2022/11/06 20:32:44;;;;;;;18.1;23.8;;;;;;;8.4;88.1;98930;;;;
2022/11/06 20:43:43;;;;;;;18.1;23.8;;;;;;;8.5;88.9;98920;;;;
2022/11/06 20:54:43;;;;;;;18.7;27.6;;;;;;;8.5;89.2;98930;;;;
2022/11/06 21:04:43;;;;;;;18.7;27.6;;;;;;;8.5;89.2;98920;;;;
2022/11/06 21:14:43;;;;;;;18.7;27.6;;;;;;;8.5;89;98930;;;;
2022/11/06 21:25:43;;;;;;;19.6;26.5;;;;;;;8.6;89.2;98930;;;;
2022/11/06 21:35:43;;;;;;;19.6;26.5;;;;;;;8.5;89.1;98920;;;;
2022/11/06 21:46:43;;;;;;;19.6;26.5;;;;;;;8.4;89.1;98910;;;;
2022/11/06 21:56:43;;;;;;;19.3;27.3;;;;;;;8.3;88.6;98910;;;;
2022/11/06 22:06:43;;;;;;;19.3;27.3;;;;;;;8.2;88.6;98910;;;;
2022/11/06 22:17:43;;;;;;;19.3;27.3;;;;;;;8.2;88.5;98910;;;;
2022/11/06 22:28:43;;;;;;;19.7;29.2;;;;;;;8;88.6;98900;;;;
2022/11/06 22:39:43;;;;;;;19.7;29.2;;;;;;;7.9;88.4;98900;;;;
2022/11/06 22:49:43;;;;;;;19.7;29.2;;;;;;;7.6;87.8;98900;;;;
2022/11/06 22:59:43;;;;;;;16.3;23.6;;;;;;;7.6;88.1;98870;;;;
2022/11/06 23:09:43;;;;;;;16.3;23.6;;;;;;;7.5;88.7;98870;;;;
2022/11/06 23:19:43;;;;;;;16.3;23.6;;;;;;;7.5;88.7;98860;;;;
2022/11/06 23:30:43;;;;;;;12.9;21.1;;;;;;;7.6;89;98860;;;;
2022/11/06 23:41:44;;;;;;;12.9;21.1;;;;;;;7.7;89.2;98860;;;;
2022/11/06 23:52:43;;;;;;;13.7;23.2;;;;;;;7.9;89.5;98860;;;;
